Pagrindinis puslapis
METAR-TAF:

METAR-TAF

Oro uostai :

Vesterosas, Švedija

platuma: 59-35N, ilguma: 016-38E, Aukštis: 6 m

Dabartinis oras

Ataskaita buvo paskelbta 39 minutes, ne 05:20 UTC
Vėjas 12 kt iš Šiaurės
Temperatūra -6°C
Drėgmė 79%
Slėgis 990 hPa
Matomumas 10 km arba daugiau

METAR: ESOW 020520Z AUTO 36012KT 9999 OVC030/// M06/M09 Q0990

Laikas: 06:59 (05:59 UTC)

Prognozė

Ataskaita buvo paskelbta 18 valandos ir 29 minutes, ne 11:30 UTC
Prognozė galioja nuo 01 metu 12 UTC su 01 metu 16 UTC
Vėjas 5 kt iš Šiaurės Rytų
Matomumas 10 km arba daugiau
nėra debesų žemiau 1500 m ir nėra kamuolinių lietaus debesų

TAF: ESOW 011130Z 0112/0116 04005KT CAVOK

Orai ataskaitas ir orų prognozės (METAR, TAF).

turimą stotys yra geltonos ir raudonos taškus žemėlapyje.

Perkelti pele per norėdami pamatyti stoties vardą.

Tada spustelėkite, norėdami matyti oro stebėjimo ir prognozės.

Norėdami pakeisti žemėlapį: spustelėkite ant žalios mygtukų su juodo kryžiaus žemyn,; žalią mygtuką su brūkšneliu, jei norite nutolinti; arba žalių rodyklių gretimoms žemėlapius.


METAR-TAF: